createdAt,value
2023-03-14T02:43:50.616Z,1.36
2023-03-14T02:44:50.666Z,1.37
2023-03-14T02:45:50.774Z,1.37
2023-03-14T02:46:50.753Z,1.35
2023-03-14T02:47:50.808Z,1.36
2023-03-14T02:48:50.849Z,1.33
2023-03-14T02:49:51.028Z,1.37
2023-03-14T02:50:50.936Z,1.36
2023-03-14T02:51:50.976Z,1.37
2023-03-14T02:52:51.029Z,1.35
2023-03-14T02:53:51.063Z,1.35
2023-03-14T02:54:51.096Z,1.32
2023-03-14T02:55:51.165Z,1.33
2023-03-14T02:56:51.173Z,1.33
2023-03-14T02:57:51.592Z,1.36
2023-03-14T02:58:51.247Z,1.33
2023-03-14T02:59:51.285Z,1.32
2023-03-14T03:00:51.572Z,1.32
2023-03-14T03:01:51.348Z,1.33
2023-03-14T03:02:51.373Z,1.33
2023-03-14T03:03:51.429Z,1.34
2023-03-14T03:04:51.454Z,1.32
2023-03-14T03:05:51.521Z,1.34
2023-03-14T03:06:51.502Z,1.33
2023-03-14T03:07:51.529Z,1.30
2023-03-14T03:08:51.556Z,1.30
2023-03-14T03:09:51.590Z,1.35
2023-03-14T03:10:51.620Z,1.32
2023-03-14T03:11:51.734Z,1.29
2023-03-14T03:12:51.689Z,1.31
2023-03-14T03:13:51.730Z,1.32
2023-03-14T03:14:51.749Z,1.32
2023-03-14T03:15:51.788Z,1.28
2023-03-14T03:16:51.883Z,1.31
2023-03-14T03:17:52.002Z,1.32
2023-03-14T03:18:51.879Z,1.30
2023-03-14T03:19:51.915Z,1.30
2023-03-14T03:20:51.956Z,1.31
2023-03-14T03:21:52.042Z,1.32
2023-03-14T03:22:52.060Z,1.30
2023-03-14T03:23:52.057Z,1.30
2023-03-14T03:24:52.082Z,1.30
2023-03-14T03:25:52.092Z,1.29
2023-03-14T03:26:52.198Z,1.29
2023-03-14T03:27:52.169Z,1.29
2023-03-14T03:28:52.192Z,1.28
2023-03-14T03:29:52.204Z,1.30
2023-03-14T03:30:52.252Z,1.27
2023-03-14T03:31:52.259Z,1.28
2023-03-14T03:32:52.346Z,1.30
2023-03-14T03:33:52.310Z,1.28
2023-03-14T03:34:52.336Z,1.28
2023-03-14T03:35:52.391Z,1.26
2023-03-14T03:36:52.413Z,1.25
2023-03-14T03:37:52.444Z,1.27
2023-03-14T03:38:52.463Z,1.30
2023-03-14T03:39:52.496Z,1.26
2023-03-14T03:40:52.521Z,1.26
2023-03-14T03:41:52.624Z,1.26
2023-03-14T03:42:52.578Z,1.28
2023-03-14T03:43:52.625Z,1.27
2023-03-14T03:44:52.636Z,1.25
2023-03-14T03:45:52.732Z,1.26
2023-03-14T03:46:52.701Z,1.22
2023-03-14T03:47:52.720Z,1.25
2023-03-14T03:48:52.750Z,1.24
2023-03-14T03:49:52.776Z,1.24
2023-03-14T03:50:52.797Z,1.25
2023-03-14T03:51:52.836Z,1.25
2023-03-14T03:52:52.864Z,1.24
2023-03-14T03:53:52.946Z,1.25
2023-03-14T03:54:52.932Z,1.24
2023-03-14T03:55:52.935Z,1.25
2023-03-14T03:56:52.976Z,1.22
2023-03-14T03:57:52.993Z,1.26
2023-03-14T03:58:53.023Z,1.25
2023-03-14T03:59:53.051Z,1.24
2023-03-14T04:00:53.066Z,1.23
2023-03-14T04:01:53.096Z,1.23
2023-03-14T04:02:53.278Z,1.24
2023-03-14T04:03:53.187Z,1.23
2023-03-14T04:04:53.179Z,1.23
2023-03-14T04:05:53.200Z,1.21
2023-03-14T04:06:53.219Z,1.23
2023-03-14T04:07:53.258Z,1.21
2023-03-14T04:08:53.269Z,1.22
2023-03-14T04:09:53.300Z,1.24
2023-03-14T04:10:53.320Z,1.23
2023-03-14T04:11:53.342Z,1.23
2023-03-14T04:12:53.371Z,1.22
2023-03-14T04:13:53.615Z,1.24
2023-03-14T04:14:53.421Z,1.21
2023-03-14T04:15:53.473Z,1.22
2023-03-14T04:16:54.166Z,1.23
2023-03-14T04:17:53.502Z,1.23
2023-03-14T04:18:53.518Z,1.21
2023-03-14T04:19:53.547Z,1.23
2023-03-14T04:20:53.562Z,1.23
2023-03-14T04:21:53.589Z,1.22
2023-03-14T04:22:53.623Z,1.20
2023-03-14T04:23:53.648Z,1.20
2023-03-14T04:24:53.689Z,1.21
2023-03-14T04:25:53.708Z,1.21
2023-03-14T04:26:53.720Z,1.22
2023-03-14T04:27:53.743Z,1.20
2023-03-14T04:28:53.769Z,1.19
2023-03-14T04:29:53.798Z,1.21
2023-03-14T04:30:53.923Z,1.22
2023-03-14T04:31:53.855Z,1.20
2023-03-14T04:32:53.995Z,1.20
2023-03-14T04:33:53.890Z,1.19
2023-03-14T04:34:53.917Z,1.19
2023-03-14T04:35:54.006Z,1.20
2023-03-14T04:36:53.988Z,1.20
2023-03-14T04:37:54.015Z,1.19
2023-03-14T04:38:54.054Z,1.20
2023-03-14T07:40:00.702Z,5.51
2023-03-14T07:41:00.677Z,5.59
2023-03-14T07:54:00.612Z,5.41
2023-03-14T07:56:00.774Z,5.45
2023-03-14T07:57:00.842Z,5.45
2023-03-14T07:58:00.925Z,5.29
2023-03-14T08:02:01.270Z,5.30
2023-03-14T08:45:03.031Z,0.50
2023-03-14T09:28:04.811Z,1.34
2023-03-14T09:29:04.836Z,1.49
2023-03-14T09:30:04.869Z,1.52
2023-03-14T09:31:05.046Z,1.60
2023-03-14T09:32:05.073Z,1.72
2023-03-14T09:33:05.172Z,1.85
2023-03-14T09:34:05.127Z,1.94
2023-03-14T09:35:05.197Z,2.06
2023-03-14T09:36:05.224Z,2.19
2023-03-14T09:37:05.237Z,2.34
2023-03-14T11:50:07.505Z,9.50
2023-03-14T12:03:07.930Z,8.69
2023-03-14T13:04:10.771Z,6.59
2023-03-14T13:07:10.632Z,6.57
2023-03-14T13:08:10.655Z,6.54
2023-03-14T13:09:10.657Z,6.38
2023-03-14T13:11:10.667Z,6.32
2023-03-14T13:12:10.775Z,6.34
2023-03-14T13:13:11.850Z,6.28
2023-03-14T13:14:10.766Z,6.27
2023-03-14T13:15:11.717Z,6.20
2023-03-14T13:17:33.569Z,6.25
2023-03-14T13:19:10.954Z,6.26
2023-03-14T13:21:10.969Z,6.17
2023-03-14T13:22:10.968Z,6.17
2023-03-14T13:23:10.979Z,6.07
2023-03-14T13:24:10.993Z,6.02
2023-03-14T13:25:10.990Z,5.96
2023-03-14T13:26:11.025Z,6.03
2023-03-14T13:27:11.095Z,5.94
2023-03-14T13:28:11.172Z,5.90
2023-03-14T13:29:11.288Z,5.93
2023-03-14T13:30:11.334Z,5.87
2023-03-14T13:31:11.444Z,5.80
2023-03-14T13:32:11.487Z,5.86
2023-03-14T13:33:11.560Z,5.74
2023-03-14T13:34:11.697Z,5.78
2023-03-14T13:35:11.714Z,5.66
2023-03-14T13:37:11.723Z,5.66
2023-03-14T13:38:12.571Z,5.66
2023-03-14T13:39:11.805Z,5.65
2023-03-14T13:40:11.807Z,5.65
2023-03-14T13:41:11.772Z,5.66
2023-03-14T13:42:11.778Z,5.61
2023-03-14T13:43:11.788Z,5.54
2023-03-14T13:44:11.809Z,5.54
2023-03-14T13:45:12.312Z,5.48
2023-03-14T13:46:12.019Z,5.43
2023-03-14T13:47:12.105Z,5.48
2023-03-14T13:48:12.142Z,5.43
2023-03-14T13:49:12.229Z,5.40
2023-03-14T13:50:12.507Z,5.39
2023-03-14T13:51:12.439Z,5.20
2023-03-14T13:52:12.473Z,5.17
2023-03-14T13:53:13.228Z,5.22
2023-03-14T13:54:12.636Z,5.15
2023-03-14T13:55:12.697Z,5.22
2023-03-14T13:56:12.830Z,5.23
2023-03-14T13:57:12.890Z,5.20
2023-03-14T13:59:13.040Z,5.17
2023-03-14T14:00:13.137Z,5.06
2023-03-14T14:02:13.354Z,5.20
2023-03-14T14:03:13.403Z,5.13
2023-03-14T14:04:13.580Z,5.11
2023-03-14T14:05:13.573Z,5.12
2023-03-14T14:06:14.263Z,5.19
2023-03-14T14:08:14.314Z,5.00
2023-03-14T14:09:13.816Z,5.02
2023-03-14T16:35:20.862Z,2.79
2023-03-14T16:45:20.867Z,2.74
2023-03-14T16:46:20.896Z,2.71
2023-03-14T16:53:21.455Z,2.70
2023-03-14T17:02:20.626Z,2.65
2023-03-14T17:03:20.638Z,2.62
2023-03-14T17:04:20.747Z,2.56
2023-03-14T17:05:22.324Z,2.61
2023-03-14T17:06:20.733Z,2.63
2023-03-14T17:07:20.752Z,2.61
2023-03-14T17:08:20.799Z,2.56
2023-03-14T17:09:20.799Z,2.58
2023-03-14T17:10:21.380Z,2.55
2023-03-14T17:11:20.858Z,2.60
2023-03-14T17:12:20.906Z,2.56
2023-03-14T17:13:20.935Z,2.57
2023-03-14T17:14:21.799Z,2.50
2023-03-14T17:15:20.989Z,2.55
2023-03-14T17:16:22.795Z,2.46
2023-03-14T17:17:21.166Z,2.49
2023-03-14T17:18:21.194Z,2.46
2023-03-14T17:19:21.328Z,2.55
2023-03-14T17:20:21.289Z,2.50
2023-03-14T17:21:21.259Z,2.45
2023-03-14T17:22:24.875Z,2.42
2023-03-14T17:23:22.311Z,2.42
2023-03-14T17:24:21.310Z,2.43
2023-03-14T17:25:21.342Z,2.43
2023-03-14T17:26:21.348Z,2.39
2023-03-14T17:27:21.439Z,2.43
2023-03-14T17:28:21.389Z,2.41
2023-03-14T17:29:21.409Z,2.36
2023-03-14T17:30:21.421Z,2.40
2023-03-14T17:31:21.481Z,2.40
2023-03-14T17:32:21.568Z,2.33
2023-03-14T17:33:21.457Z,2.37
2023-03-14T17:34:21.481Z,2.34
2023-03-14T17:35:21.580Z,2.37
2023-03-14T17:36:21.521Z,2.36
2023-03-14T17:37:21.527Z,2.31
2023-03-14T17:38:21.545Z,2.25
2023-03-14T17:39:21.566Z,2.27
2023-03-14T17:40:21.599Z,2.23
2023-03-14T17:41:21.618Z,2.25
2023-03-14T17:42:21.639Z,2.24
2023-03-14T17:43:21.649Z,2.30
2023-03-14T17:44:21.654Z,2.25
2023-03-14T17:45:22.387Z,2.24
2023-03-14T17:46:21.808Z,2.20
2023-03-14T17:47:22.385Z,2.21
2023-03-14T17:48:21.746Z,2.20
2023-03-14T17:49:21.754Z,2.21
2023-03-14T17:50:21.798Z,2.20
2023-03-14T17:51:21.789Z,2.16
2023-03-14T17:52:21.809Z,2.18
2023-03-14T17:53:21.840Z,2.20
2023-03-14T17:54:21.853Z,2.18
2023-03-14T17:55:21.864Z,2.18
2023-03-14T17:56:21.944Z,2.19
2023-03-14T17:57:21.950Z,2.13
2023-03-14T17:58:21.927Z,2.13
2023-03-14T17:59:21.961Z,2.16
2023-03-14T18:00:21.994Z,2.14
2023-03-14T18:01:22.133Z,2.16
2023-03-14T18:02:22.175Z,2.17
2023-03-14T18:03:22.118Z,2.13
2023-03-14T18:04:22.204Z,2.11
2023-03-14T18:05:22.219Z,2.13
2023-03-14T18:06:22.224Z,2.10
2023-03-14T18:07:22.267Z,2.11
2023-03-14T18:08:22.305Z,2.10
2023-03-14T18:09:22.347Z,2.11
2023-03-14T18:10:22.376Z,2.11
2023-03-14T18:11:22.426Z,2.11
2023-03-14T18:12:22.458Z,2.12
2023-03-14T18:13:22.498Z,2.08
2023-03-14T18:14:22.511Z,2.07
2023-03-14T18:15:22.561Z,2.10
2023-03-14T18:16:22.602Z,2.07
2023-03-14T18:17:22.628Z,2.08
2023-03-14T18:18:22.931Z,2.09
2023-03-14T18:19:22.712Z,2.08
2023-03-14T18:20:22.753Z,2.05
2023-03-14T18:21:22.835Z,2.08
2023-03-14T18:22:22.833Z,2.07
2023-03-14T18:23:22.849Z,2.09
2023-03-14T18:24:22.883Z,2.07
2023-03-14T18:25:22.920Z,2.08
2023-03-14T18:26:22.959Z,2.11
2023-03-14T18:27:22.965Z,2.08
2023-03-14T18:28:23.024Z,2.05
2023-03-14T18:29:23.050Z,2.09
2023-03-14T18:30:23.065Z,2.05
2023-03-14T18:31:23.154Z,2.07
2023-03-14T18:32:23.186Z,2.08
2023-03-14T18:33:23.170Z,2.08
2023-03-14T18:34:23.195Z,2.05
2023-03-14T18:35:23.268Z,2.05
2023-03-14T18:36:23.237Z,2.02
2023-03-14T18:37:23.278Z,2.05
2023-03-14T18:38:23.314Z,2.03
2023-03-14T18:39:23.396Z,2.04
2023-03-14T18:40:23.372Z,2.04
2023-03-14T18:41:23.413Z,2.03
2023-03-14T18:42:23.445Z,2.03
2023-03-14T18:43:23.507Z,2.04
2023-03-14T18:44:23.526Z,2.03
2023-03-14T18:45:23.546Z,2.04
2023-03-14T18:46:23.667Z,2.02
2023-03-14T18:47:23.624Z,2.00
2023-03-14T18:48:23.658Z,1.99
2023-03-14T18:49:23.700Z,1.99
2023-03-14T18:50:23.741Z,2.00
2023-03-14T18:51:23.767Z,2.00
2023-03-14T18:52:23.815Z,1.98
2023-03-14T18:53:23.857Z,1.97
2023-03-14T18:54:23.890Z,1.97
2023-03-14T18:55:23.949Z,1.98
2023-03-14T18:56:23.969Z,1.97
2023-03-14T18:57:24.018Z,1.98
2023-03-14T18:58:24.045Z,1.96
2023-03-14T18:59:24.144Z,1.96
2023-03-14T19:00:24.126Z,1.95
2023-03-14T19:01:24.216Z,1.95
2023-03-14T19:02:24.295Z,1.96
2023-03-14T19:03:24.343Z,1.93
2023-03-14T19:04:24.299Z,1.95
2023-03-14T19:05:24.349Z,1.97
2023-03-14T19:06:24.404Z,1.92
2023-03-14T19:07:24.433Z,1.93
2023-03-14T19:08:24.474Z,1.94
2023-03-14T19:09:24.622Z,1.91
2023-03-14T19:10:24.545Z,1.93
2023-03-14T19:11:24.581Z,1.90
2023-03-14T19:12:24.633Z,1.93
2023-03-14T19:13:24.661Z,1.91
2023-03-14T19:14:24.707Z,1.91
2023-03-14T19:15:24.744Z,1.91
2023-03-14T19:16:25.027Z,1.90
2023-03-14T19:17:24.823Z,1.91
2023-03-14T19:18:24.857Z,1.93
2023-03-14T19:19:24.920Z,1.88
2023-03-14T19:20:24.947Z,1.87
2023-03-14T19:21:24.976Z,1.89
2023-03-14T19:22:25.441Z,1.92
2023-03-14T19:23:25.063Z,1.87
2023-03-14T19:24:25.919Z,1.86
2023-03-14T19:25:25.147Z,1.84
2023-03-14T19:26:25.209Z,1.86
2023-03-14T19:27:25.320Z,1.86
2023-03-14T19:28:25.299Z,1.86
2023-03-14T19:29:25.321Z,1.84
2023-03-14T19:30:25.356Z,1.83
2023-03-14T19:31:25.541Z,1.81
2023-03-14T19:32:25.502Z,1.82
2023-03-14T19:33:25.532Z,1.84
2023-03-14T19:34:25.596Z,1.83
2023-03-14T19:35:25.631Z,1.84
2023-03-14T19:36:25.630Z,1.83
2023-03-14T19:37:25.723Z,1.84
2023-03-14T19:38:25.736Z,1.79
2023-03-14T19:39:25.776Z,1.81
2023-03-14T19:40:25.795Z,1.79
2023-03-14T19:41:26.438Z,1.80
2023-03-14T19:42:25.879Z,1.78
2023-03-14T19:43:25.920Z,1.81
2023-03-14T19:44:25.972Z,1.79
2023-03-14T19:45:26.003Z,1.80
2023-03-14T19:46:26.099Z,1.80
2023-03-14T19:47:26.088Z,1.77
2023-03-14T19:48:26.130Z,1.77
2023-03-14T19:49:26.205Z,1.76
2023-03-14T19:50:26.217Z,1.76
2023-03-14T19:51:26.246Z,1.75
2023-03-14T19:52:26.322Z,1.76
2023-03-14T19:53:26.340Z,1.79
2023-03-14T19:54:26.388Z,1.76
2023-03-14T19:55:26.428Z,1.75
2023-03-14T19:56:26.472Z,1.74
2023-03-14T19:57:26.511Z,1.77
2023-03-14T19:58:26.550Z,1.71
2023-03-14T19:59:26.687Z,1.74
2023-03-14T20:00:26.640Z,1.73
2023-03-14T20:01:26.762Z,1.74
2023-03-14T20:02:28.558Z,1.75
2023-03-14T20:03:26.762Z,1.73
2023-03-14T20:04:26.773Z,1.72
2023-03-14T20:05:26.794Z,1.72
2023-03-14T20:06:26.812Z,1.72
2023-03-14T20:07:26.832Z,1.72
2023-03-14T20:08:26.846Z,1.71
2023-03-14T20:09:26.889Z,1.72
2023-03-14T20:10:26.891Z,1.70
2023-03-14T20:11:26.916Z,1.71
2023-03-14T20:12:26.926Z,1.69
2023-03-14T20:13:26.949Z,1.68
2023-03-14T20:14:26.997Z,1.67
2023-03-14T20:15:27.032Z,1.70
2023-03-14T20:16:27.131Z,1.69
2023-03-14T20:17:28.754Z,1.67
2023-03-14T20:18:27.072Z,1.67
2023-03-14T20:19:27.082Z,1.67
2023-03-14T20:20:27.110Z,1.67
2023-03-14T20:21:27.959Z,1.66
2023-03-14T20:22:27.162Z,1.69
2023-03-14T20:23:27.193Z,1.69
2023-03-14T20:24:27.218Z,1.67
2023-03-14T20:25:27.252Z,1.66
2023-03-14T20:26:27.289Z,1.63
2023-03-14T20:27:27.329Z,1.64
2023-03-14T20:28:27.377Z,1.62
2023-03-14T20:29:27.394Z,1.64
2023-03-14T20:30:27.429Z,1.66
2023-03-14T20:31:27.541Z,1.65
2023-03-14T20:32:27.556Z,1.61
2023-03-14T20:33:27.583Z,1.62
2023-03-14T20:34:27.607Z,1.62
2023-03-14T20:35:27.630Z,1.61
2023-03-14T20:36:27.664Z,1.62
2023-03-14T20:37:27.706Z,1.62
2023-03-14T20:38:27.753Z,1.63
2023-03-14T20:39:27.807Z,1.60
2023-03-14T20:40:27.835Z,1.62
2023-03-14T20:41:27.873Z,1.61
2023-03-14T20:42:27.929Z,1.60
2023-03-14T20:43:27.970Z,1.58
2023-03-14T20:44:27.991Z,1.58
2023-03-14T20:45:28.039Z,1.59
2023-03-14T20:46:28.230Z,1.57
2023-03-14T20:47:28.116Z,1.58
2023-03-14T20:48:28.189Z,1.58
2023-03-14T20:49:28.207Z,1.58
2023-03-14T20:50:28.233Z,1.56
2023-03-14T20:51:28.959Z,1.56
2023-03-14T20:52:28.323Z,1.56
2023-03-14T20:53:28.352Z,1.57
2023-03-14T20:54:28.419Z,1.53
2023-03-14T20:55:28.426Z,1.55
2023-03-14T20:56:28.462Z,1.56
2023-03-14T20:57:28.523Z,1.55
2023-03-14T20:58:28.540Z,1.56
2023-03-14T21:51:30.633Z,1.41
2023-03-14T21:52:30.680Z,1.40
2023-03-14T21:53:30.718Z,1.44
2023-03-14T21:54:30.809Z,1.39
2023-03-14T21:55:30.805Z,1.40
2023-03-14T21:56:30.840Z,1.38
2023-03-14T21:57:30.891Z,1.39
2023-03-14T21:58:30.925Z,1.38
2023-03-14T21:59:30.984Z,1.37
2023-03-14T22:00:31.030Z,1.37
2023-03-14T22:04:31.199Z,1.36
2023-03-14T22:05:31.248Z,1.35
2023-03-14T22:06:31.284Z,1.34
2023-03-14T22:07:31.325Z,1.33
2023-03-14T22:08:31.503Z,1.38
2023-03-14T22:09:31.407Z,1.36
2023-03-14T22:10:31.454Z,1.36
2023-03-14T22:11:31.499Z,1.34
2023-03-14T22:12:31.542Z,1.33
2023-03-14T22:13:31.581Z,1.34
2023-03-14T22:14:31.622Z,1.33
2023-03-14T22:15:31.693Z,1.33
2023-03-14T22:16:31.766Z,1.34
2023-03-14T22:17:31.755Z,1.34
2023-03-14T22:18:31.803Z,1.31
2023-03-14T22:19:31.890Z,1.33
2023-03-14T22:20:31.955Z,1.32
2023-03-14T22:21:31.928Z,1.33
2023-03-14T22:22:31.980Z,1.31
2023-03-14T22:23:32.055Z,1.31
2023-03-14T22:24:32.056Z,1.30
2023-03-14T22:25:32.127Z,1.31
2023-03-14T22:26:32.140Z,1.29
2023-03-14T22:27:32.179Z,1.29
2023-03-14T22:28:32.229Z,1.30
2023-03-14T22:29:32.273Z,1.28
2023-03-14T22:30:32.422Z,1.32
2023-03-14T22:31:32.386Z,1.30
2023-03-14T22:32:32.474Z,1.31
2023-03-14T22:33:32.445Z,1.28
2023-03-14T22:34:32.499Z,1.29
2023-03-14T22:35:32.527Z,1.27
2023-03-14T22:36:32.618Z,1.29
2023-03-14T22:37:32.620Z,1.27
2023-03-14T22:38:32.667Z,1.28
2023-03-14T22:39:32.729Z,1.27
2023-03-14T22:40:32.785Z,1.27
2023-03-14T22:41:32.775Z,1.29
2023-03-14T22:42:32.825Z,1.28
2023-03-14T22:43:32.872Z,1.26
2023-03-14T22:44:32.915Z,1.26
2023-03-14T22:45:32.996Z,1.26
2023-03-14T22:46:32.990Z,1.28
2023-03-14T22:47:33.037Z,1.22
2023-03-14T22:48:33.077Z,1.27
2023-03-14T22:49:33.117Z,1.24
2023-03-14T22:50:33.161Z,1.26
2023-03-14T22:51:33.203Z,1.25
2023-03-14T22:52:33.255Z,1.25
2023-03-14T22:53:33.298Z,1.26
2023-03-14T22:54:33.347Z,1.23
2023-03-14T22:55:33.394Z,1.25
2023-03-14T22:56:33.503Z,1.23
2023-03-14T22:57:33.476Z,1.25
2023-03-14T22:58:33.515Z,1.24
2023-03-14T22:59:33.575Z,1.23
2023-03-14T23:00:33.638Z,1.26
2023-03-14T23:01:33.679Z,1.22
2023-03-14T23:02:33.732Z,1.23
2023-03-14T23:03:33.781Z,1.21
2023-03-14T23:04:33.832Z,1.22
2023-03-14T23:05:33.908Z,1.22
2023-03-14T23:06:33.940Z,1.23
2023-03-14T23:07:33.992Z,1.21
2023-03-14T23:08:34.041Z,1.21
2023-03-14T23:09:34.084Z,1.20
2023-03-14T23:10:34.140Z,1.22
2023-03-14T23:11:34.184Z,1.20
2023-03-14T23:12:34.246Z,1.20
2023-03-14T23:13:34.298Z,1.20
2023-03-14T23:14:34.340Z,1.22
2023-03-14T23:17:34.515Z,1.22
2023-03-14T23:26:34.980Z,1.15
